Time;durP1;ratioP1;P1;durP2;ratioP2;P2;SDS_P1;SDS_P2;PMS_P1;PMS_P2;Temp;Humidity;BMP_temperature;BMP_pressure;BME280_temperature;BME280_humidity;BME280_pressure;Samples;Min_cycle;Max_cycle;Signal;HPM_P1;HPM_P2
2021/04/30 00:01:26;;;;;;;7.27;6.60;;;11.40;99.90;;;;;;5024056;28;20232;-70
2021/04/30 00:03:52;;;;;;;7.60;7.00;;;11.30;99.90;;;;;;5023162;28;20189;-70
2021/04/30 00:06:17;;;;;;;7.40;6.80;;;11.30;99.90;;;;;;5025587;28;20192;-71
2021/04/30 00:08:43;;;;;;;7.93;7.23;;;11.30;99.90;;;;;;5025297;28;20224;-70
2021/04/30 00:11:09;;;;;;;7.40;6.77;;;11.30;99.90;;;;;;5024990;28;20228;-73
2021/04/30 00:13:38;;;;;;;8.70;7.83;;;11.30;99.90;;;;;;5026131;28;20223;-72
2021/04/30 00:16:06;;;;;;;7.97;7.17;;;11.20;99.90;;;;;;5025163;28;20223;-71
2021/04/30 00:18:32;;;;;;;7.80;7.10;;;11.20;99.90;;;;;;5026799;28;20423;-71
2021/04/30 00:20:59;;;;;;;8.30;7.60;;;11.10;99.90;;;;;;5027297;28;20450;-71
2021/04/30 00:23:26;;;;;;;7.17;6.47;;;11.10;99.90;;;;;;5026972;28;20538;-72
2021/04/30 00:25:53;;;;;;;7.50;6.90;;;11.10;99.90;;;;;;5026999;28;20474;-71
2021/04/30 00:28:19;;;;;;;7.43;6.73;;;11.10;99.90;;;;;;5025205;28;20415;-73
2021/04/30 00:30:45;;;;;;;8.20;7.33;;;11.00;99.90;;;;;;5024798;28;20534;-72
2021/04/30 00:33:11;;;;;;;8.10;7.40;;;11.00;99.90;;;;;;5007930;28;21165;-71
2021/04/30 00:35:37;;;;;;;7.43;6.83;;;11.00;99.90;;;;;;5007913;28;20234;-70
2021/04/30 00:38:03;;;;;;;7.93;7.13;;;10.90;99.90;;;;;;5025493;28;20232;-70
2021/04/30 00:40:28;;;;;;;7.43;6.70;;;10.90;99.90;;;;;;5026809;28;20205;-71
2021/04/30 00:42:54;;;;;;;7.37;6.67;;;10.80;99.90;;;;;;5024081;28;20856;-71
2021/04/30 00:45:23;;;;;;;9.10;7.30;;;10.80;99.90;;;;;;5026230;28;20184;-72
2021/04/30 00:47:49;;;;;;;7.50;6.90;;;10.80;99.90;;;;;;5026615;28;20424;-73
2021/04/30 00:50:15;;;;;;;7.77;6.30;;;10.80;99.90;;;;;;5024382;28;20437;-72
2021/04/30 00:52:41;;;;;;;7.70;7.00;;;10.70;99.90;;;;;;5024530;28;20443;-70
2021/04/30 00:55:10;;;;;;;9.50;7.13;;;10.70;99.90;;;;;;5024738;28;20455;-69
2021/04/30 00:57:38;;;;;;;8.17;7.00;;;10.70;99.90;;;;;;5026085;28;20189;-70
2021/04/30 01:00:08;;;;;;;8.50;7.17;;;10.70;99.90;;;;;;5020081;28;20913;-72
2021/04/30 01:02:34;;;;;;;7.30;6.60;;;10.80;99.90;;;;;;5024765;28;20424;-74
2021/04/30 01:05:01;;;;;;;7.40;6.80;;;10.70;99.90;;;;;;5024567;28;21110;-70
2021/04/30 01:07:28;;;;;;;8.40;7.20;;;10.60;99.90;;;;;;5023184;28;20181;-71
2021/04/30 01:09:55;;;;;;;8.17;7.47;;;10.50;99.90;;;;;;5024419;28;20463;-72
2021/04/30 01:12:22;;;;;;;6.23;5.73;;;10.50;99.90;;;;;;5025101;28;20925;-70
2021/04/30 01:14:48;;;;;;;7.40;6.80;;;10.50;99.90;;;;;;5025220;28;20462;-69
2021/04/30 01:17:16;;;;;;;7.47;6.60;;;10.40;99.90;;;;;;5025307;28;20439;-71
2021/04/30 01:19:41;;;;;;;8.60;7.80;;;10.40;99.90;;;;;;5022981;28;21034;-71
2021/04/30 01:22:07;;;;;;;7.20;6.60;;;10.40;99.90;;;;;;5026942;28;20420;-71
2021/04/30 01:24:33;;;;;;;16.00;6.80;;;10.30;99.90;;;;;;5023360;28;20200;-73
2021/04/30 01:26:58;;;;;;;8.23;6.63;;;10.20;99.90;;;;;;5025367;28;20180;-71
2021/04/30 01:29:25;;;;;;;7.20;6.50;;;10.10;99.90;;;;;;5006117;28;20191;-70
2021/04/30 01:31:50;;;;;;;8.50;6.70;;;10.10;99.90;;;;;;5021821;28;20268;-71
2021/04/30 01:34:16;;;;;;;6.90;6.30;;;10.10;99.90;;;;;;5017434;28;20546;-73
2021/04/30 01:36:42;;;;;;;7.57;6.83;;;10.10;99.90;;;;;;5024723;28;20200;-70
2021/04/30 01:39:12;;;;;;;7.07;6.47;;;10.00;99.90;;;;;;5021432;28;20187;-70
2021/04/30 01:41:38;;;;;;;7.80;7.10;;;10.00;99.90;;;;;;5017687;28;20500;-70
2021/04/30 01:44:13;;;;;;;7.10;6.40;;;10.00;99.90;;;;;;5023089;28;20442;-69
2021/04/30 01:46:39;;;;;;;12.70;7.40;;;9.90;99.90;;;;;;5020009;28;20517;-70
2021/04/30 01:49:06;;;;;;;7.43;6.43;;;9.80;99.90;;;;;;5023169;28;20432;-70
2021/04/30 01:51:34;;;;;;;21.70;8.37;;;9.80;99.90;;;;;;5019616;28;20987;-71
2021/04/30 01:54:00;;;;;;;7.30;6.60;;;9.80;99.90;;;;;;5021302;28;20999;-71
2021/04/30 01:56:26;;;;;;;7.80;7.07;;;9.80;99.90;;;;;;5021787;28;20489;-72
2021/04/30 01:58:52;;;;;;;8.50;7.70;;;9.70;99.90;;;;;;5021813;28;20419;-72
2021/04/30 02:01:18;;;;;;;7.47;6.83;;;9.70;99.90;;;;;;5022950;28;20215;-73
2021/04/30 02:03:44;;;;;;;7.50;6.90;;;9.80;99.90;;;;;;5022664;28;20180;-71
2021/04/30 02:06:10;;;;;;;8.63;7.10;;;9.70;99.90;;;;;;5019935;28;20435;-69
2021/04/30 02:08:36;;;;;;;7.43;6.73;;;9.70;99.90;;;;;;5019177;28;20602;-70
2021/04/30 02:11:02;;;;;;;7.30;6.60;;;9.70;99.90;;;;;;5021212;28;20579;-71
2021/04/30 02:13:28;;;;;;;6.97;6.37;;;9.70;99.90;;;;;;5004983;28;20481;-70
2021/04/30 02:15:54;;;;;;;7.57;6.87;;;9.70;99.90;;;;;;5024524;28;20426;-72
2021/04/30 02:18:20;;;;;;;8.00;7.20;;;9.70;99.90;;;;;;5003585;28;20654;-71
2021/04/30 02:20:46;;;;;;;8.67;7.50;;;9.60;99.90;;;;;;5018096;28;20447;-70
2021/04/30 02:23:12;;;;;;;7.20;6.43;;;9.60;99.90;;;;;;5024206;28;20419;-70
2021/04/30 02:25:39;;;;;;;8.67;6.47;;;9.60;99.90;;;;;;5016617;28;20223;-71
2021/04/30 02:28:05;;;;;;;8.83;7.97;;;9.50;99.90;;;;;;5017092;28;20451;-71
2021/04/30 02:30:34;;;;;;;8.07;7.30;;;9.50;99.90;;;;;;5021476;28;20498;-69
2021/04/30 02:33:01;;;;;;;10.43;7.67;;;9.40;99.90;;;;;;5018560;28;20428;-70
2021/04/30 02:35:30;;;;;;;7.53;6.47;;;9.40;99.90;;;;;;5021688;28;20458;-70
2021/04/30 02:37:56;;;;;;;8.30;7.50;;;9.30;99.90;;;;;;5017200;28;20431;-71
2021/04/30 02:40:25;;;;;;;8.30;7.50;;;9.30;99.90;;;;;;5017339;28;20542;-71
2021/04/30 02:42:53;;;;;;;7.00;6.43;;;9.30;99.90;;;;;;5024390;28;20434;-70
2021/04/30 02:45:19;;;;;;;7.63;6.80;;;9.30;99.90;;;;;;5023959;28;20430;-70
2021/04/30 02:47:50;;;;;;;8.23;7.43;;;9.30;99.90;;;;;;5023254;28;20470;-71
2021/04/30 02:50:18;;;;;;;7.80;7.10;;;9.30;99.90;;;;;;5027169;28;20443;-71
2021/04/30 02:52:44;;;;;;;8.27;7.20;;;9.20;99.90;;;;;;5026010;28;20983;-72
2021/04/30 02:55:11;;;;;;;7.70;6.80;;;9.30;99.90;;;;;;5028328;28;21023;-71
2021/04/30 02:57:37;;;;;;;7.87;7.07;;;9.30;99.90;;;;;;5027727;28;20510;-70
2021/04/30 03:00:08;;;;;;;7.77;7.07;;;9.30;99.90;;;;;;5023509;28;20605;-69
2021/04/30 03:02:34;;;;;;;8.80;6.30;;;9.20;99.90;;;;;;5026862;28;20212;-71
2021/04/30 03:04:59;;;;;;;7.70;6.90;;;9.20;99.90;;;;;;5026107;28;21106;-70
2021/04/30 03:07:25;;;;;;;7.73;7.00;;;9.10;99.90;;;;;;5024514;28;20674;-70
2021/04/30 03:09:51;;;;;;;8.47;6.63;;;9.10;99.90;;;;;;5024689;28;20771;-70
2021/04/30 03:12:17;;;;;;;9.30;8.40;;;9.00;99.90;;;;;;5025709;28;20188;-70
2021/04/30 03:14:42;;;;;;;7.80;7.00;;;9.00;99.90;;;;;;5025956;28;20251;-69
2021/04/30 03:17:08;;;;;;;9.30;7.43;;;9.00;99.90;;;;;;5027572;28;20431;-69
2021/04/30 03:19:33;;;;;;;8.37;7.47;;;9.00;99.90;;;;;;5024634;28;20205;-69
2021/04/30 03:21:59;;;;;;;8.10;7.03;;;9.00;99.90;;;;;;5029404;28;20256;-73
2021/04/30 03:24:25;;;;;;;7.70;6.93;;;9.00;99.90;;;;;;5023301;28;20723;-71
2021/04/30 03:26:50;;;;;;;7.80;7.00;;;9.00;99.90;;;;;;5035051;28;20196;-69
2021/04/30 03:29:16;;;;;;;10.57;7.30;;;9.00;99.90;;;;;;5039646;28;20184;-72
2021/04/30 03:31:42;;;;;;;7.80;7.10;;;9.00;99.90;;;;;;5034606;28;20562;-73
2021/04/30 03:34:07;;;;;;;7.47;6.80;;;9.00;99.90;;;;;;5026710;28;20220;-70
2021/04/30 03:36:35;;;;;;;10.03;8.23;;;9.00;99.90;;;;;;5025557;28;20185;-70
2021/04/30 03:39:02;;;;;;;8.40;7.17;;;9.00;99.90;;;;;;5025258;28;20181;-70
2021/04/30 03:41:29;;;;;;;8.93;7.97;;;9.00;99.90;;;;;;5027020;28;20810;-72
2021/04/30 03:43:55;;;;;;;7.90;7.20;;;8.90;99.90;;;;;;5020843;28;20431;-70
2021/04/30 03:46:20;;;;;;;7.53;6.90;;;9.00;99.90;;;;;;5024899;28;20449;-70
2021/04/30 03:48:46;;;;;;;8.33;7.53;;;9.00;99.90;;;;;;5027877;28;20604;-71
2021/04/30 03:51:11;;;;;;;8.20;7.50;;;8.90;99.90;;;;;;5026982;28;20204;-71
2021/04/30 03:53:37;;;;;;;8.20;7.10;;;8.90;99.90;;;;;;5006669;28;20244;-70
2021/04/30 03:56:03;;;;;;;7.80;7.10;;;8.90;99.90;;;;;;5026635;28;20188;-71
2021/04/30 03:58:28;;;;;;;8.77;7.90;;;8.90;99.90;;;;;;5025405;28;20185;-71
2021/04/30 04:00:54;;;;;;;7.40;6.70;;;8.90;99.90;;;;;;5026935;28;20527;-70
2021/04/30 04:03:20;;;;;;;11.43;8.00;;;8.90;99.90;;;;;;5020921;28;20192;-69
2021/04/30 04:05:45;;;;;;;8.10;7.00;;;8.90;99.90;;;;;;5025206;28;20234;-70
2021/04/30 04:08:11;;;;;;;9.27;8.37;;;8.90;99.90;;;;;;5025128;28;20214;-71
2021/04/30 04:10:37;;;;;;;7.70;6.93;;;9.00;99.90;;;;;;5025374;28;21149;-72
2021/04/30 04:13:23;;;;;;;7.77;6.97;;;9.00;99.90;;;;;;5025032;28;20868;-69
2021/04/30 04:15:49;;;;;;;7.10;6.50;;;9.00;99.90;;;;;;5023066;28;20410;-69
2021/04/30 04:18:17;;;;;;;9.87;7.90;;;8.90;99.90;;;;;;5022379;28;20447;-73
2021/04/30 04:20:43;;;;;;;8.47;7.57;;;8.90;99.90;;;;;;5008563;28;20835;-71
2021/04/30 04:23:10;;;;;;;11.80;8.90;;;8.90;99.90;;;;;;5005973;28;20844;-73
2021/04/30 04:25:36;;;;;;;9.23;7.80;;;8.90;99.90;;;;;;5021668;28;21015;-72
2021/04/30 04:28:02;;;;;;;9.90;7.10;;;8.90;99.90;;;;;;5020051;28;20498;-71
2021/04/30 04:30:28;;;;;;;8.77;7.97;;;8.90;99.90;;;;;;5022424;28;20494;-70
2021/04/30 04:32:54;;;;;;;8.13;7.17;;;8.80;99.90;;;;;;5022933;28;20457;-74
2021/04/30 04:35:20;;;;;;;8.63;7.83;;;8.80;99.90;;;;;;5024816;28;20220;-71
2021/04/30 04:37:46;;;;;;;9.87;8.27;;;8.80;99.90;;;;;;5021050;28;20177;-70
2021/04/30 04:40:13;;;;;;;9.27;8.37;;;8.80;99.90;;;;;;5024039;28;20536;-70
2021/04/30 04:42:41;;;;;;;10.30;8.27;;;8.80;99.90;;;;;;5026431;28;20419;-72
2021/04/30 04:45:08;;;;;;;9.80;8.73;;;8.80;99.90;;;;;;5026063;28;20526;-72
2021/04/30 04:47:34;;;;;;;10.00;8.33;;;8.90;99.90;;;;;;5022504;28;20427;-70
2021/04/30 04:49:59;;;;;;;9.27;8.37;;;8.90;99.90;;;;;;5026273;28;20454;-72
2021/04/30 04:52:25;;;;;;;9.43;8.43;;;8.90;99.90;;;;;;5024632;28;20208;-69
2021/04/30 04:54:50;;;;;;;9.40;8.40;;;9.00;99.90;;;;;;5020191;28;20208;-70
2021/04/30 04:57:17;;;;;;;9.80;8.57;;;9.00;99.90;;;;;;5022787;28;20208;-71
2021/04/30 04:59:42;;;;;;;8.30;7.53;;;9.10;99.90;;;;;;5022592;28;20733;-70
2021/04/30 05:02:08;;;;;;;8.60;7.80;;;9.10;99.90;;;;;;5023697;28;20446;-71
2021/04/30 05:04:34;;;;;;;8.87;7.90;;;9.10;99.90;;;;;;5021675;28;20282;-70
2021/04/30 05:06:59;;;;;;;8.97;7.97;;;9.20;99.90;;;;;;5022190;28;20188;-71
2021/04/30 05:09:27;;;;;;;9.10;8.20;;;9.20;99.90;;;;;;5020126;28;21598;-73
2021/04/30 05:11:53;;;;;;;9.50;8.50;;;9.20;99.90;;;;;;5003311;28;20188;-70
2021/04/30 05:14:19;;;;;;;9.10;8.27;;;9.20;99.90;;;;;;5002212;28;21212;-71
2021/04/30 05:16:44;;;;;;;15.60;8.53;;;9.30;99.90;;;;;;5019238;28;20246;-72
2021/04/30 05:19:10;;;;;;;8.77;7.97;;;9.30;99.90;;;;;;5015446;28;20184;-71
2021/04/30 05:21:39;;;;;;;10.20;9.20;;;9.40;99.90;;;;;;5004430;28;20193;-72
2021/04/30 05:24:05;;;;;;;10.60;8.33;;;9.40;99.90;;;;;;5020245;28;20192;-70
2021/04/30 05:26:31;;;;;;;10.87;8.80;;;9.40;99.90;;;;;;5017929;28;20442;-70
2021/04/30 05:28:57;;;;;;;12.00;9.70;;;9.40;99.90;;;;;;5018977;28;20546;-70
2021/04/30 05:31:23;;;;;;;11.90;9.87;;;9.40;99.90;;;;;;4997427;28;20219;-70
2021/04/30 05:33:49;;;;;;;10.70;8.77;;;9.40;99.90;;;;;;5015316;28;20553;-70
2021/04/30 05:36:15;;;;;;;9.73;8.80;;;9.40;99.90;;;;;;5016988;28;20448;-72
2021/04/30 05:38:40;;;;;;;10.03;8.87;;;9.40;99.90;;;;;;5018427;28;20674;-72
2021/04/30 05:41:06;;;;;;;10.37;9.30;;;9.40;99.90;;;;;;5016169;28;20295;-70
2021/04/30 05:43:31;;;;;;;14.33;9.13;;;9.40;99.90;;;;;;5016402;28;20282;-72
2021/04/30 05:45:57;;;;;;;11.40;9.30;;;9.50;99.90;;;;;;5017464;28;20181;-70
2021/04/30 05:48:23;;;;;;;11.43;9.67;;;9.50;99.90;;;;;;4999782;28;20196;-70
2021/04/30 05:50:48;;;;;;;13.00;8.80;;;9.50;99.90;;;;;;5016137;28;20204;-70
2021/04/30 05:53:14;;;;;;;11.47;8.63;;;9.50;99.90;;;;;;5014614;28;20873;-73
2021/04/30 05:55:40;;;;;;;10.63;9.33;;;9.60;99.90;;;;;;5019015;28;20205;-70
2021/04/30 05:58:06;;;;;;;12.90;10.77;;;9.60;99.90;;;;;;5004891;28;20234;-69
2021/04/30 06:00:31;;;;;;;10.77;9.77;;;9.60;99.90;;;;;;5015568;28;20631;-71
2021/04/30 06:02:57;;;;;;;11.50;9.30;;;9.60;99.90;;;;;;5015081;28;20517;-71
2021/04/30 06:05:23;;;;;;;10.47;8.77;;;9.60;99.90;;;;;;5014868;28;20196;-74
2021/04/30 06:07:48;;;;;;;12.00;9.47;;;9.70;99.90;;;;;;5020040;28;20698;-71
2021/04/30 06:10:14;;;;;;;10.60;9.50;;;9.70;99.90;;;;;;4997429;28;20243;-71
2021/04/30 06:12:41;;;;;;;13.83;10.93;;;9.70;99.90;;;;;;5016760;28;20217;-71
2021/04/30 06:15:07;;;;;;;10.90;9.80;;;9.70;99.90;;;;;;5020506;28;20238;-71
2021/04/30 06:17:33;;;;;;;11.03;9.93;;;9.70;99.90;;;;;;5020491;28;21199;-72
2021/04/30 06:19:59;;;;;;;11.03;9.93;;;9.70;99.90;;;;;;5002791;28;20447;-69
2021/04/30 06:22:24;;;;;;;12.40;11.10;;;9.70;99.90;;;;;;5022068;28;20176;-72
2021/04/30 06:24:50;;;;;;;12.30;8.97;;;9.70;99.90;;;;;;5020427;28;20234;-71
2021/04/30 06:27:16;;;;;;;11.07;9.90;;;9.80;99.90;;;;;;5021205;28;20647;-72
2021/04/30 06:29:42;;;;;;;16.90;11.40;;;9.80;99.90;;;;;;5003459;28;21186;-70
2021/04/30 06:32:07;;;;;;;16.60;10.67;;;9.80;99.90;;;;;;5020990;28;20206;-71
2021/04/30 06:34:33;;;;;;;11.23;10.13;;;9.80;99.90;;;;;;5021149;28;20307;-73
2021/04/30 06:36:59;;;;;;;12.60;10.50;;;9.90;99.90;;;;;;5021074;28;20567;-74
2021/04/30 06:39:24;;;;;;;10.73;9.63;;;9.90;99.90;;;;;;5020993;28;20187;-72
2021/04/30 06:41:51;;;;;;;11.93;9.73;;;9.90;99.90;;;;;;5019900;28;20185;-71
2021/04/30 06:44:17;;;;;;;11.47;10.37;;;9.90;99.90;;;;;;5020949;28;20207;-75
2021/04/30 06:46:44;;;;;;;11.87;10.53;;;10.00;99.90;;;;;;5021553;28;20443;-71
2021/04/30 06:49:09;;;;;;;11.70;10.60;;;10.00;99.90;;;;;;5020864;28;20906;-71
2021/04/30 06:51:35;;;;;;;10.27;9.23;;;10.10;99.90;;;;;;5020209;28;20466;-72
2021/04/30 06:54:01;;;;;;;12.80;9.80;;;10.10;99.90;;;;;;5022332;28;20334;-71
2021/04/30 06:56:31;;;;;;;13.07;10.50;;;10.10;99.90;;;;;;5020766;28;20239;-71
2021/04/30 06:58:57;;;;;;;11.60;9.60;;;10.10;99.90;;;;;;5023333;28;20497;-72
2021/04/30 07:01:23;;;;;;;12.03;10.57;;;10.20;99.90;;;;;;5019202;28;20452;-70
2021/04/30 07:03:49;;;;;;;12.43;10.10;;;10.20;99.90;;;;;;5028293;28;20428;-72
2021/04/30 07:06:16;;;;;;;11.97;10.77;;;10.20;99.90;;;;;;5032095;28;20525;-71
2021/04/30 07:08:42;;;;;;;11.30;10.20;;;10.20;99.90;;;;;;5031283;28;20199;-72
2021/04/30 07:11:09;;;;;;;11.83;10.63;;;10.20;99.90;;;;;;5025943;28;20470;-70
2021/04/30 07:13:35;;;;;;;11.17;10.07;;;10.20;99.90;;;;;;5005506;28;20416;-69
2021/04/30 07:16:02;;;;;;;16.93;11.50;;;10.20;99.90;;;;;;5001901;28;20811;-71
2021/04/30 07:18:28;;;;;;;13.53;11.70;;;10.20;99.90;;;;;;5022397;28;20427;-74
2021/04/30 07:20:53;;;;;;;15.20;12.10;;;10.20;99.90;;;;;;5022926;28;20466;-73
2021/04/30 07:23:19;;;;;;;13.87;11.67;;;10.10;99.90;;;;;;5022168;28;20188;-71
2021/04/30 07:25:45;;;;;;;15.40;12.87;;;10.10;99.90;;;;;;5017957;28;20185;-70
2021/04/30 07:28:11;;;;;;;14.70;11.97;;;10.10;99.90;;;;;;5023511;28;20216;-71
2021/04/30 07:30:37;;;;;;;14.43;12.37;;;10.10;99.90;;;;;;5022206;28;20218;-73
2021/04/30 07:33:02;;;;;;;16.80;12.17;;;10.10;99.90;;;;;;5023876;28;20439;-71
2021/04/30 07:35:28;;;;;;;17.60;12.97;;;10.10;99.90;;;;;;5025924;28;20205;-70
2021/04/30 07:37:54;;;;;;;17.13;12.83;;;10.10;99.90;;;;;;5024053;28;20196;-69
2021/04/30 07:40:19;;;;;;;14.67;13.13;;;10.10;99.90;;;;;;5022927;28;20212;-71
2021/04/30 07:42:45;;;;;;;16.67;13.13;;;10.20;99.90;;;;;;5025800;28;20190;-69
2021/04/30 07:45:11;;;;;;;16.67;12.43;;;10.20;99.90;;;;;;5021104;28;20188;-72
2021/04/30 07:47:37;;;;;;;21.50;14.70;;;10.20;99.90;;;;;;5022457;28;20231;-70
2021/04/30 07:50:05;;;;;;;17.87;12.80;;;10.20;99.90;;;;;;5021261;28;20466;-73
2021/04/30 07:52:31;;;;;;;15.47;13.97;;;10.20;99.90;;;;;;5023125;28;20448;-71
2021/04/30 07:54:57;;;;;;;16.30;14.17;;;10.20;99.90;;;;;;5021158;28;20468;-71
2021/04/30 07:57:22;;;;;;;17.07;13.90;;;10.20;99.90;;;;;;5018791;28;20462;-69
2021/04/30 07:59:48;;;;;;;16.03;12.90;;;10.20;99.90;;;;;;5006503;28;20208;-70
2021/04/30 08:02:14;;;;;;;16.77;14.00;;;10.30;99.90;;;;;;5021142;28;20690;-70
2021/04/30 08:04:39;;;;;;;16.53;14.10;;;10.30;99.90;;;;;;5022333;28;20812;-70
2021/04/30 08:07:05;;;;;;;18.00;13.80;;;10.20;99.90;;;;;;5021428;28;20208;-70
2021/04/30 08:09:31;;;;;;;14.93;13.30;;;10.30;99.90;;;;;;5023607;28;20197;-69
2021/04/30 08:11:56;;;;;;;20.97;13.93;;;10.30;99.90;;;;;;5024971;28;20203;-71
2021/04/30 08:14:22;;;;;;;18.20;14.70;;;10.30;99.90;;;;;;5018587;28;20217;-71
2021/04/30 08:16:48;;;;;;;17.00;15.17;;;10.20;99.90;;;;;;5022203;28;20204;-70
2021/04/30 08:19:13;;;;;;;21.70;15.47;;;10.30;99.90;;;;;;5023263;28;20191;-69
2021/04/30 08:21:39;;;;;;;16.30;13.23;;;10.20;99.90;;;;;;5024155;28;20181;-71
2021/04/30 08:24:05;;;;;;;17.77;15.23;;;10.20;99.90;;;;;;5025456;28;20271;-72
2021/04/30 08:26:31;;;;;;;16.63;14.80;;;10.20;99.90;;;;;;5025495;28;20199;-70
2021/04/30 08:28:58;;;;;;;21.20;16.07;;;10.20;99.90;;;;;;5005262;28;20438;-72
2021/04/30 08:31:24;;;;;;;21.53;15.10;;;10.20;99.90;;;;;;5021721;28;20216;-70
2021/04/30 08:33:50;;;;;;;20.13;15.90;;;10.20;99.90;;;;;;5019230;28;20514;-69
2021/04/30 08:36:17;;;;;;;16.33;14.40;;;10.20;99.90;;;;;;5020326;28;20189;-71
2021/04/30 08:38:43;;;;;;;17.53;13.90;;;10.20;99.90;;;;;;5018359;28;20439;-72
2021/04/30 08:41:09;;;;;;;17.27;13.93;;;10.10;99.90;;;;;;5023000;28;20537;-72
2021/04/30 08:43:36;;;;;;;19.57;14.87;;;10.10;99.90;;;;;;5020566;28;20813;-70
2021/04/30 08:46:04;;;;;;;18.70;14.13;;;10.10;99.90;;;;;;5021569;28;20431;-72
2021/04/30 08:48:32;;;;;;;20.07;16.37;;;10.10;99.90;;;;;;5021996;28;20431;-70
2021/04/30 08:50:58;;;;;;;20.43;15.43;;;10.10;99.90;;;;;;5003505;28;20462;-72
2021/04/30 08:53:23;;;;;;;18.03;14.97;;;10.10;99.90;;;;;;5021007;28;20428;-74
2021/04/30 08:55:51;;;;;;;22.20;14.60;;;10.00;99.90;;;;;;5004086;28;20212;-71
2021/04/30 08:58:25;;;;;;;23.43;16.27;;;10.00;99.90;;;;;;5019513;28;20697;-71
2021/04/30 09:00:51;;;;;;;23.10;16.60;;;10.00;99.90;;;;;;5019056;28;20467;-70
2021/04/30 09:03:17;;;;;;;19.60;15.40;;;9.90;99.90;;;;;;5019954;28;20446;-72
2021/04/30 09:05:48;;;;;;;25.80;17.70;;;9.90;99.90;;;;;;5021186;28;20858;-70
2021/04/30 09:08:14;;;;;;;23.53;16.90;;;9.90;99.90;;;;;;5023133;28;20830;-71
2021/04/30 09:10:42;;;;;;;21.13;16.60;;;9.90;99.90;;;;;;5023449;28;21033;-72
2021/04/30 09:13:13;;;;;;;20.50;15.83;;;9.90;99.90;;;;;;5018661;28;21241;-70
2021/04/30 09:15:41;;;;;;;20.30;16.10;;;10.00;99.90;;;;;;5022078;28;20466;-69
2021/04/30 09:18:20;;;;;;;21.03;16.53;;;10.00;99.90;;;;;;5022332;28;20465;-72
2021/04/30 09:20:48;;;;;;;21.07;15.57;;;10.00;99.90;;;;;;5021421;28;20458;-72
2021/04/30 09:23:34;;;;;;;23.90;17.27;;;10.00;99.90;;;;;;5022844;28;20514;-70
2021/04/30 09:26:00;;;;;;;23.33;16.20;;;10.00;99.90;;;;;;5020617;28;20430;-70
2021/04/30 09:28:26;;;;;;;20.47;15.70;;;10.00;99.90;;;;;;5019693;28;20839;-71
2021/04/30 09:30:52;;;;;;;24.83;17.53;;;10.00;99.90;;;;;;5014642;28;20534;-69
2021/04/30 09:33:20;;;;;;;22.13;16.30;;;10.10;99.90;;;;;;5017695;28;20219;-72
2021/04/30 09:35:47;;;;;;;18.87;15.80;;;10.10;99.90;;;;;;5017235;28;20223;-71
2021/04/30 09:38:25;;;;;;;19.67;15.67;;;10.10;99.90;;;;;;5018125;28;20462;-74
2021/04/30 09:41:01;;;;;;;19.10;14.53;;;10.10;99.90;;;;;;5015749;28;20463;-71
2021/04/30 09:43:49;;;;;;;21.40;15.47;;;10.20;99.90;;;;;;5015940;28;20424;-72
2021/04/30 09:46:25;;;;;;;20.57;14.40;;;10.20;99.90;;;;;;5010243;28;20443;-70
2021/04/30 09:49:04;;;;;;;17.03;13.97;;;10.20;99.90;;;;;;5024993;28;20917;-70
2021/04/30 09:51:57;;;;;;;18.57;15.17;;;10.20;99.90;;;;;;5028435;28;20458;-72
2021/04/30 09:54:28;;;;;;;19.70;14.97;;;10.20;99.90;;;;;;5022761;28;20462;-69
2021/04/30 09:57:23;;;;;;;19.00;14.50;;;10.20;99.90;;;;;;5027368;28;20422;-69
2021/04/30 09:59:56;;;;;;;20.90;14.13;;;10.10;99.90;;;;;;5025412;28;20462;-71
2021/04/30 10:02:23;;;;;;;19.53;14.10;;;10.10;99.90;;;;;;5028847;28;20427;-71
2021/04/30 10:04:54;;;;;;;17.20;14.10;;;10.10;99.90;;;;;;5023700;28;20800;-71
2021/04/30 10:07:46;;;;;;;19.17;14.53;;;10.00;99.90;;;;;;5027308;28;20557;-70
2021/04/30 10:10:19;;;;;;;16.10;13.50;;;9.90;99.90;;;;;;5022877;28;20485;-70
2021/04/30 10:12:52;;;;;;;16.90;15.10;;;9.90;99.90;;;;;;5027287;28;20505;-69
2021/04/30 10:15:19;;;;;;;18.23;14.87;;;9.90;99.90;;;;;;5026806;28;20706;-70
2021/04/30 10:17:47;;;;;;;14.77;12.73;;;9.90;99.90;;;;;;5026330;28;20451;-69
2021/04/30 10:20:15;;;;;;;20.57;14.80;;;9.80;99.90;;;;;;5027620;28;20439;-73
2021/04/30 10:22:43;;;;;;;19.73;14.50;;;9.80;99.90;;;;;;5026142;28;20426;-70
2021/04/30 10:25:10;;;;;;;19.53;14.23;;;9.80;99.90;;;;;;5027406;28;20438;-70
2021/04/30 10:27:42;;;;;;;17.73;14.37;;;9.90;99.90;;;;;;5025278;28;21020;-71
2021/04/30 10:30:30;;;;;;;20.50;14.40;;;9.90;99.90;;;;;;5021819;28;20467;-70
2021/04/30 10:33:10;;;;;;;21.10;15.67;;;9.90;99.90;;;;;;5026492;28;20411;-71
2021/04/30 10:35:57;;;;;;;18.13;14.30;;;9.90;99.90;;;;;;5026705;28;20486;-72
2021/04/30 10:38:27;;;;;;;20.33;15.27;;;9.90;99.90;;;;;;5023998;28;20427;-70
2021/04/30 10:40:59;;;;;;;18.23;13.90;;;9.90;99.90;;;;;;5006964;28;20782;-71
2021/04/30 10:43:26;;;;;;;18.40;14.70;;;9.90;99.90;;;;;;5034444;28;20435;-72
2021/04/30 10:46:22;;;;;;;18.80;15.00;;;9.80;99.90;;;;;;5020864;28;20434;-72
2021/04/30 10:49:09;;;;;;;20.33;14.17;;;9.90;99.90;;;;;;5027558;28;20533;-69
2021/04/30 10:51:37;;;;;;;17.23;13.90;;;9.80;99.90;;;;;;5008068;28;20470;-70
2021/04/30 10:54:23;;;;;;;16.70;14.57;;;9.80;99.90;;;;;;5026567;28;20486;-69
2021/04/30 10:57:07;;;;;;;18.03;15.43;;;9.80;99.90;;;;;;5012411;28;20813;-72
2021/04/30 10:59:39;;;;;;;19.13;15.00;;;9.80;99.90;;;;;;5025845;28;20430;-70
2021/04/30 11:02:30;;;;;;;19.10;15.27;;;9.80;99.90;;;;;;5023619;28;20492;-70
2021/04/30 11:05:17;;;;;;;20.37;15.83;;;9.80;99.90;;;;;;5024899;28;20419;-72
2021/04/30 11:07:54;;;;;;;24.70;14.77;;;9.90;99.90;;;;;;5020061;28;20425;-71
2021/04/30 11:10:31;;;;;;;19.60;14.60;;;9.80;99.90;;;;;;5023721;28;20467;-69
2021/04/30 11:13:03;;;;;;;14.80;13.00;;;9.80;99.90;;;;;;5027530;28;20423;-70
2021/04/30 11:15:51;;;;;;;18.27;14.10;;;9.80;99.90;;;;;;5024041;28;20465;-70
2021/04/30 11:18:20;;;;;;;20.43;13.97;;;9.80;99.90;;;;;;5007051;28;20451;-71
2021/04/30 11:21:06;;;;;;;15.77;13.13;;;9.80;99.90;;;;;;5022463;28;20474;-69
2021/04/30 11:23:42;;;;;;;18.27;12.80;;;9.80;99.90;;;;;;5023188;28;20431;-70
2021/04/30 11:26:17;;;;;;;18.30;14.47;;;9.80;99.90;;;;;;5019841;28;20547;-71
2021/04/30 11:28:42;;;;;;;18.60;14.80;;;9.80;99.90;;;;;;5019896;28;20989;-72
2021/04/30 11:31:09;;;;;;;36.03;22.10;;;9.80;99.90;;;;;;5028022;28;20443;-70
2021/04/30 11:33:40;;;;;;;44.37;24.63;;;9.80;99.90;;;;;;5022925;28;20204;-70
2021/04/30 11:36:12;;;;;;;60.67;29.80;;;9.80;99.90;;;;;;5022597;28;20439;-70
2021/04/30 11:38:50;;;;;;;33.17;18.63;;;9.80;99.90;;;;;;5025136;28;20431;-71
2021/04/30 11:41:16;;;;;;;18.03;14.47;;;9.80;99.90;;;;;;5022557;28;20447;-72
2021/04/30 11:43:50;;;;;;;23.20;16.70;;;9.80;99.90;;;;;;5022665;28;20439;-70
2021/04/30 11:46:16;;;;;;;18.83;14.77;;;9.80;99.90;;;;;;5022880;28;20481;-71
2021/04/30 11:48:43;;;;;;;15.93;11.80;;;9.90;99.90;;;;;;5022791;28;20518;-73
2021/04/30 11:51:11;;;;;;;17.53;14.03;;;9.90;99.90;;;;;;5024541;28;20452;-70
2021/04/30 11:53:40;;;;;;;17.10;12.80;;;9.90;99.90;;;;;;5006731;28;20435;-70
2021/04/30 11:56:06;;;;;;;24.80;14.40;;;10.00;99.90;;;;;;5022689;28;20446;-71
2021/04/30 11:58:39;;;;;;;20.43;14.90;;;10.00;99.90;;;;;;5018734;28;20446;-71
2021/04/30 12:01:06;;;;;;;18.40;14.07;;;10.00;99.90;;;;;;5023913;28;20450;-71
2021/04/30 12:03:46;;;;;;;16.40;12.03;;;10.00;99.90;;;;;;5022842;28;20435;-72
2021/04/30 12:06:15;;;;;;;17.37;12.90;;;10.10;99.90;;;;;;5020941;28;20432;-72
2021/04/30 12:08:45;;;;;;;16.87;12.60;;;10.00;99.90;;;;;;5024207;28;20427;-73
2021/04/30 12:11:24;;;;;;;16.63;13.20;;;10.00;99.90;;;;;;5021347;28;20447;-71
2021/04/30 12:13:55;;;;;;;16.70;13.00;;;10.00;99.90;;;;;;5017414;28;20496;-72
2021/04/30 12:16:21;;;;;;;18.67;14.27;;;10.00;99.90;;;;;;5021153;28;20489;-71
2021/04/30 12:18:48;;;;;;;17.60;14.07;;;9.90;99.90;;;;;;5022150;28;20435;-72
2021/04/30 12:21:25;;;;;;;16.27;13.50;;;10.00;99.90;;;;;;5001402;28;20491;-71
2021/04/30 12:23:53;;;;;;;33.03;16.13;;;10.10;99.90;;;;;;5021812;28;20434;-69
2021/04/30 12:26:28;;;;;;;23.80;17.60;;;10.10;99.90;;;;;;5010882;28;20435;-70
2021/04/30 12:28:56;;;;;;;16.27;13.77;;;10.20;99.90;;;;;;5023272;28;20515;-73
2021/04/30 12:31:25;;;;;;;12.50;11.13;;;10.30;99.90;;;;;;5023529;28;20473;-74
2021/04/30 12:33:52;;;;;;;12.97;11.57;;;10.20;99.90;;;;;;5018040;28;20473;-71
2021/04/30 12:36:28;;;;;;;11.60;10.50;;;10.10;99.90;;;;;;5021522;28;20427;-70
2021/04/30 12:38:56;;;;;;;14.83;11.67;;;10.10;99.90;;;;;;5023417;28;20493;-69
2021/04/30 12:41:28;;;;;;;15.53;12.43;;;10.10;99.90;;;;;;5021201;28;20498;-70
2021/04/30 12:43:56;;;;;;;15.50;12.10;;;10.00;99.90;;;;;;5021425;28;20442;-73
2021/04/30 12:46:27;;;;;;;14.20;12.23;;;10.00;99.90;;;;;;5022750;28;21052;-71